Lakeside, Texas
Current Conditions -  °F | °C
As of 4:52 AM on Wednesday 22 Oct 2014 (Local Time) from KNFW Reporting Station
Clear Clear  
Wind Chill: 64°   Ceiling: Unl
Heat Index: 64°   Visibility: 10mi
Dew Point: 58°   Wind: 3mph
Humidity: 80%   Direction: 330°NNW
Pressure: 30.11"   Gusts: NA
Location:  32.8392°N, 97.4646°W
Report Text: KNFW 220952Z AUTO 33003KT 10SM CLR 18/14 A3011 RMK AO2 SLP180 T01780144 CHINO N VISNO N $
Loading
Personal Weather Stations






























Interactive Weather Map
Tropical Storm Tracking
New forecast layout! Learn more

10-Day Weather Forecast

Advertisements
Track Severe Weather on mobile